createdAt,value
2023-02-11T00:00:05.867Z,102790.59
2023-02-11T00:02:34.854Z,102790.94
2023-02-11T00:05:04.025Z,102785.33
2023-02-11T00:07:32.925Z,102786.29
2023-02-11T00:10:02.341Z,102788.45
2023-02-11T00:12:31.044Z,102790.41
2023-02-11T00:14:59.714Z,102787.59
2023-02-11T00:17:28.419Z,102788.83
2023-02-11T00:19:57.077Z,102786.94
2023-02-11T00:22:25.661Z,102780.98
2023-02-11T00:24:54.382Z,102781.40
2023-02-11T00:27:23.265Z,102782.24
2023-02-11T00:29:52.129Z,102782.75
2023-02-11T00:32:20.754Z,102777.30
2023-02-11T00:34:52.619Z,102779.10
2023-02-11T00:37:21.956Z,102780.79
2023-02-11T00:39:50.628Z,102781.27
2023-02-11T00:42:22.316Z,102784.33
2023-02-11T00:44:50.976Z,102780.70
2023-02-11T00:47:19.776Z,102777.92
2023-02-11T00:49:48.490Z,102778.18
2023-02-11T00:52:17.437Z,102772.37
2023-02-11T00:54:46.284Z,102774.98
2023-02-11T00:57:14.913Z,102775.11
2023-02-11T00:59:43.241Z,102781.08
2023-02-11T01:02:11.857Z,102774.29
2023-02-11T01:04:40.575Z,102773.05
2023-02-11T01:07:09.437Z,102774.62
2023-02-11T01:09:38.866Z,102769.27
2023-02-11T01:12:07.661Z,102774.39
2023-02-11T01:14:36.388Z,102774.62
2023-02-11T01:17:05.510Z,102773.01
2023-02-11T01:19:34.399Z,102771.45
2023-02-11T01:22:03.390Z,102774.54
2023-02-11T01:24:31.965Z,102773.88
2023-02-11T01:27:00.801Z,102776.27
2023-02-11T01:29:29.626Z,102774.70
2023-02-11T01:31:58.567Z,102773.25
2023-02-11T01:34:27.281Z,102764.95
2023-02-11T01:36:57.617Z,102764.25
2023-02-11T01:39:26.239Z,102761.96
2023-02-11T01:41:55.372Z,102759.05
2023-02-11T01:44:27.771Z,102756.10
2023-02-11T01:46:56.518Z,102754.17
2023-02-11T01:49:27.251Z,102757.14
2023-02-11T01:51:56.809Z,102755.31
2023-02-11T01:54:45.085Z,102755.77
2023-02-11T01:57:24.389Z,102755.04
2023-02-11T01:59:58.855Z,102759.48
2023-02-11T02:02:29.904Z,102751.80
2023-02-11T02:04:59.840Z,102752.31
2023-02-11T02:07:30.811Z,102754.00
2023-02-11T02:10:00.610Z,102756.55
2023-02-11T02:12:29.072Z,102755.14
2023-02-11T02:15:15.343Z,102752.70
2023-02-11T02:17:45.362Z,102750.88
2023-02-11T02:20:34.078Z,102754.16
2023-02-11T02:23:25.746Z,102755.00
2023-02-11T02:26:11.334Z,102758.77
2023-02-11T02:28:55.458Z,102758.39
2023-02-11T02:31:26.762Z,102757.09
2023-02-11T02:33:56.401Z,102756.70
2023-02-11T02:36:31.456Z,102758.25
2023-02-11T02:39:01.046Z,102754.38
2023-02-11T02:41:30.130Z,102750.57
2023-02-11T02:43:58.841Z,102751.56
2023-02-11T02:46:28.177Z,102751.55
2023-02-11T02:48:57.298Z,102753.77
2023-02-11T02:51:35.550Z,102752.62
2023-02-11T02:54:10.672Z,102747.63
2023-02-11T02:56:40.060Z,102750.27
2023-02-11T02:59:15.963Z,102755.23
2023-02-11T03:01:47.256Z,102753.10
2023-02-11T03:04:18.199Z,102753.54
2023-02-11T03:06:48.436Z,102749.73
2023-02-11T03:09:19.046Z,102748.86
2023-02-11T03:11:47.870Z,102747.80
2023-02-11T03:14:17.347Z,102752.42
2023-02-11T03:16:46.113Z,102750.54
2023-02-11T03:19:15.680Z,102739.85
2023-02-11T03:21:44.469Z,102740.54
2023-02-11T03:24:14.245Z,102732.65
2023-02-11T03:26:44.719Z,102733.83
2023-02-11T03:29:14.651Z,102732.33
2023-02-11T03:31:44.926Z,102737.32
2023-02-11T03:34:15.108Z,102737.27
2023-02-11T03:36:45.446Z,102739.79
2023-02-11T03:39:14.667Z,102735.95
2023-02-11T03:41:43.398Z,102736.73
2023-02-11T03:44:12.053Z,102738.45
2023-02-11T03:46:40.737Z,102735.92
2023-02-11T03:49:10.443Z,102731.60
2023-02-11T03:51:39.107Z,102724.77
2023-02-11T03:54:09.742Z,102719.04
2023-02-11T03:56:39.481Z,102717.92
2023-02-11T03:59:08.668Z,102718.39
2023-02-11T04:01:37.470Z,102720.15
2023-02-11T04:04:06.382Z,102715.23
2023-02-11T04:06:34.996Z,102722.48
2023-02-11T04:09:03.675Z,102722.59
2023-02-11T04:11:32.242Z,102723.08
2023-02-11T04:14:01.879Z,102719.23
2023-02-11T04:16:30.755Z,102717.88
2023-02-11T04:19:00.390Z,102713.64
2023-02-11T04:21:29.009Z,102710.62
2023-02-11T04:23:57.768Z,102710.46
2023-02-11T04:26:26.462Z,102711.48
2023-02-11T04:28:55.287Z,102708.38
2023-02-11T04:31:24.076Z,102709.61
2023-02-11T04:33:52.992Z,102714.82
2023-02-11T04:36:21.520Z,102710.39
2023-02-11T04:38:50.265Z,102710.64
2023-02-11T04:41:19.039Z,102706.10
2023-02-11T04:43:47.697Z,102706.83
2023-02-11T04:46:16.349Z,102709.50
2023-02-11T04:48:45.228Z,102715.27
2023-02-11T04:51:14.087Z,102718.61
2023-02-11T04:53:42.908Z,102716.00
2023-02-11T04:56:11.520Z,102718.66
2023-02-11T04:58:40.032Z,102718.37
2023-02-11T05:01:08.881Z,102726.70
2023-02-11T05:03:37.805Z,102729.80
2023-02-11T05:06:07.362Z,102730.55
2023-02-11T05:08:36.023Z,102730.45
2023-02-11T05:11:04.721Z,102736.51
2023-02-11T05:13:33.450Z,102741.09
2023-02-11T05:16:02.212Z,102739.10
2023-02-11T05:18:30.966Z,102741.81
2023-02-11T05:20:59.576Z,102749.42
2023-02-11T05:23:28.220Z,102744.08
2023-02-11T05:25:57.018Z,102747.83
2023-02-11T05:28:25.755Z,102747.94
2023-02-11T05:30:54.573Z,102752.55
2023-02-11T05:33:23.141Z,102752.23
2023-02-11T05:35:52.086Z,102752.11
2023-02-11T05:38:21.176Z,102749.98
2023-02-11T05:40:50.040Z,102755.46
2023-02-11T05:43:18.575Z,102762.21
2023-02-11T05:45:47.378Z,102764.90
2023-02-11T05:48:15.900Z,102771.09
2023-02-11T05:50:44.860Z,102777.80
2023-02-11T05:53:13.586Z,102772.73
2023-02-11T05:55:42.501Z,102769.95
2023-02-11T05:58:11.152Z,102770.39
2023-02-11T06:00:39.730Z,102771.89
2023-02-11T06:03:08.569Z,102773.09
2023-02-11T06:05:37.346Z,102768.48
2023-02-11T06:08:06.024Z,102770.64
2023-02-11T06:10:34.645Z,102767.83
2023-02-11T06:13:03.263Z,102766.24
2023-02-11T06:15:31.999Z,102764.33
2023-02-11T06:18:00.832Z,102761.14
2023-02-11T06:20:29.668Z,102758.19
2023-02-11T06:22:58.189Z,102754.51
2023-02-11T06:25:26.707Z,102760.40
2023-02-11T06:27:55.696Z,102764.55
2023-02-11T06:30:24.520Z,102763.23
2023-02-11T06:32:54.258Z,102760.10
2023-02-11T06:35:22.795Z,102760.64
2023-02-11T06:37:53.348Z,102767.40
2023-02-11T06:40:22.043Z,102764.63
2023-02-11T06:42:50.998Z,102763.27
2023-02-11T06:45:20.055Z,102765.95
2023-02-11T06:47:48.698Z,102761.61
2023-02-11T06:50:17.189Z,102760.88
2023-02-11T06:52:45.890Z,102759.70
2023-02-11T06:55:15.125Z,102754.41
2023-02-11T06:57:45.339Z,102751.78
2023-02-11T07:00:15.126Z,102748.41
2023-02-11T07:02:43.876Z,102748.67
2023-02-11T07:05:12.652Z,102748.26
2023-02-11T07:07:41.519Z,102744.98
2023-02-11T07:10:10.375Z,102738.58
2023-02-11T07:12:39.023Z,102733.98
2023-02-11T07:15:08.410Z,102727.71
2023-02-11T07:17:38.606Z,102722.90
2023-02-11T07:20:12.027Z,102719.48
2023-02-11T07:22:40.932Z,102718.14
2023-02-11T07:25:09.699Z,102712.65
2023-02-11T07:28:15.445Z,102707.20
2023-02-11T07:30:44.307Z,102705.80
2023-02-11T07:33:13.081Z,102701.34
2023-02-11T07:35:42.789Z,102697.63
2023-02-11T07:38:11.356Z,102696.94
2023-02-11T07:40:39.989Z,102692.48
2023-02-11T07:43:08.910Z,102693.33
2023-02-11T07:45:39.235Z,102694.04
2023-02-11T07:48:07.893Z,102693.86
2023-02-11T07:50:36.462Z,102695.67
2023-02-11T07:53:05.045Z,102694.55
2023-02-11T07:55:33.885Z,102693.50
2023-02-11T07:58:02.788Z,102693.91
2023-02-11T08:00:31.637Z,102694.17
2023-02-11T08:03:00.345Z,102692.45
2023-02-11T08:05:29.836Z,102697.02
2023-02-11T08:07:58.460Z,102696.23
2023-02-11T08:10:27.343Z,102693.59
2023-02-11T08:12:56.018Z,102695.14
2023-02-11T08:15:24.711Z,102689.46
2023-02-11T08:17:53.277Z,102694.41
2023-02-11T08:20:22.000Z,102697.61
2023-02-11T08:22:50.744Z,102697.47
2023-02-11T08:25:19.514Z,102697.70
2023-02-11T08:27:48.018Z,102693.77
2023-02-11T08:30:16.762Z,102690.56
2023-02-11T08:32:45.805Z,102685.65
2023-02-11T08:35:14.558Z,102685.35
2023-02-11T08:37:43.268Z,102683.31
2023-02-11T08:40:12.075Z,102681.45
2023-02-11T08:42:40.684Z,102677.95
2023-02-11T08:45:10.398Z,102683.48
2023-02-11T08:47:39.235Z,102680.84
2023-02-11T08:50:08.511Z,102678.32
2023-02-11T08:52:37.281Z,102680.05
2023-02-11T08:55:06.665Z,102677.66
2023-02-11T08:57:35.380Z,102681.58
2023-02-11T09:00:05.009Z,102675.46
2023-02-11T09:02:33.980Z,102671.94
2023-02-11T09:05:02.711Z,102667.76
2023-02-11T09:07:31.248Z,102665.40
2023-02-11T09:09:59.897Z,102667.17
2023-02-11T09:12:28.674Z,102665.68
2023-02-11T09:14:58.655Z,102658.56
2023-02-11T09:17:27.505Z,102656.25
2023-02-11T09:19:56.079Z,102655.30
2023-02-11T09:22:24.823Z,102653.95
2023-02-11T09:24:53.692Z,102651.08
2023-02-11T09:27:22.415Z,102646.23
2023-02-11T09:29:51.336Z,102644.52
2023-02-11T09:32:19.876Z,102644.21
2023-02-11T09:34:48.405Z,102645.10
2023-02-11T09:37:17.276Z,102643.05
2023-02-11T09:39:46.085Z,102635.13
2023-02-11T09:42:31.822Z,102625.38
2023-02-11T09:45:01.640Z,102619.34
2023-02-11T09:47:31.221Z,102612.27
2023-02-11T09:50:00.700Z,102605.66
2023-02-11T09:52:37.135Z,102602.30
2023-02-11T09:55:07.361Z,102599.38
2023-02-11T09:57:36.872Z,102589.05
2023-02-11T10:00:16.510Z,102581.15
2023-02-11T10:02:48.559Z,102578.21
2023-02-11T10:05:23.309Z,102573.20
2023-02-11T10:07:56.058Z,102566.73
2023-02-11T10:10:31.812Z,102562.95
2023-02-11T10:13:08.270Z,102553.02
2023-02-11T10:15:41.552Z,102551.64
2023-02-11T10:18:34.420Z,102552.47
2023-02-11T10:21:09.136Z,102549.35
2023-02-11T10:23:38.342Z,102539.94
2023-02-11T10:26:10.924Z,102533.30
2023-02-11T10:28:43.098Z,102526.71
2023-02-11T10:31:15.425Z,102516.63
2023-02-11T10:33:46.024Z,102509.10
2023-02-11T10:36:17.318Z,102506.85
2023-02-11T10:38:45.902Z,102500.08
2023-02-11T10:41:18.249Z,102493.93
2023-02-11T10:43:49.887Z,102489.59
2023-02-11T10:46:19.415Z,102482.48
2023-02-11T10:48:51.042Z,102480.81
2023-02-11T10:51:23.121Z,102475.73
2023-02-11T10:53:59.963Z,102472.52
2023-02-11T10:56:28.624Z,102468.68
2023-02-11T10:59:01.068Z,102461.87
2023-02-11T11:01:46.510Z,102454.88
2023-02-11T11:04:37.416Z,102452.13
2023-02-11T11:07:13.972Z,102447.33
2023-02-11T11:09:47.604Z,102443.59
2023-02-11T11:12:30.006Z,102434.48
2023-02-11T11:15:01.089Z,102435.96
2023-02-11T11:17:33.075Z,102436.09
2023-02-11T11:20:16.036Z,102434.08
2023-02-11T11:22:46.201Z,102425.36
2023-02-11T11:25:26.153Z,102427.79
2023-02-11T11:27:55.530Z,102413.64
2023-02-11T11:30:25.423Z,102409.63
2023-02-11T11:32:54.621Z,102403.95
2023-02-11T11:35:25.204Z,102396.73
2023-02-11T11:37:55.013Z,102397.23
2023-02-11T11:40:26.024Z,102385.25
2023-02-11T11:43:06.407Z,102381.41
2023-02-11T11:45:35.598Z,102373.25
2023-02-11T11:48:06.169Z,102365.92
2023-02-11T11:50:35.425Z,102357.02
2023-02-11T11:53:06.549Z,102352.72
2023-02-11T11:55:37.273Z,102347.25
2023-02-11T11:58:07.192Z,102338.14
2023-02-11T12:00:37.364Z,102335.67
2023-02-11T12:03:20.108Z,102331.26
2023-02-11T12:05:51.213Z,102327.00
2023-02-11T12:08:22.251Z,102318.65
2023-02-11T12:10:57.716Z,102312.73
2023-02-11T12:13:31.710Z,102312.52
2023-02-11T12:16:02.968Z,102304.20
2023-02-11T12:18:38.242Z,102303.38
2023-02-11T12:21:15.126Z,102307.64
2023-02-11T12:23:49.608Z,102301.70
2023-02-11T12:26:19.300Z,102295.08
2023-02-11T12:28:55.737Z,102301.32
2023-02-11T12:31:31.100Z,102291.98
2023-02-11T12:34:04.806Z,102285.96
2023-02-11T12:36:37.779Z,102286.73
2023-02-11T12:39:10.228Z,102281.02
2023-02-11T12:42:01.781Z,102273.11
2023-02-11T12:44:33.141Z,102268.67
2023-02-11T12:47:03.450Z,102265.20
2023-02-11T12:49:44.716Z,102256.99
2023-02-11T12:52:25.716Z,102253.95
2023-02-11T12:54:55.056Z,102247.88
2023-02-11T12:57:25.407Z,102246.59
2023-02-11T12:59:56.051Z,102239.79
2023-02-11T13:02:27.488Z,102236.54
2023-02-11T13:04:57.098Z,102229.69
2023-02-11T13:07:31.462Z,102227.56
2023-02-11T13:10:09.821Z,102226.42
2023-02-11T13:12:57.093Z,102225.48
2023-02-11T13:15:26.220Z,102220.64
2023-02-11T13:17:57.372Z,102215.46
2023-02-11T13:20:28.693Z,102215.41
2023-02-11T13:22:58.996Z,102212.67
2023-02-11T13:25:30.029Z,102214.91
2023-02-11T13:28:00.031Z,102218.84
2023-02-11T13:30:32.668Z,102217.83
2023-02-11T13:33:16.966Z,102224.44
2023-02-11T13:35:46.241Z,102223.24
2023-02-11T13:38:18.993Z,102218.20
2023-02-11T13:40:49.329Z,102215.70
2023-02-11T13:43:20.479Z,102216.37
2023-02-11T13:45:49.345Z,102219.20
2023-02-11T13:48:23.590Z,102215.40
2023-02-11T13:51:04.560Z,102209.52
2023-02-11T13:53:47.443Z,102205.06
2023-02-11T13:56:28.361Z,102207.25
2023-02-11T13:59:01.791Z,102197.55
2023-02-11T14:01:42.789Z,102195.27
2023-02-11T14:04:40.020Z,102193.29
2023-02-11T14:07:41.317Z,102185.30
2023-02-11T14:10:24.173Z,102182.41
2023-02-11T14:13:05.734Z,102181.75
2023-02-11T14:15:39.916Z,102178.00
2023-02-11T14:18:25.545Z,102175.72
2023-02-11T14:20:55.776Z,102166.71
2023-02-11T14:23:29.710Z,102168.16
2023-02-11T14:26:04.005Z,102159.21
2023-02-11T14:28:34.604Z,102148.88
2023-02-11T14:34:07.007Z,102147.06
2023-02-11T14:36:46.121Z,102149.86
2023-02-11T14:39:17.549Z,102150.42
2023-02-11T14:41:46.518Z,102144.26
2023-02-11T14:44:28.812Z,102137.60
2023-02-11T14:46:57.676Z,102136.83
2023-02-11T14:49:29.145Z,102128.79
2023-02-11T14:51:58.957Z,102126.69
2023-02-11T14:54:29.815Z,102123.81
2023-02-11T14:57:09.267Z,102119.39
2023-02-11T14:59:39.818Z,102117.61
2023-02-11T15:02:21.551Z,102119.92
2023-02-11T15:04:56.034Z,102116.77
2023-02-11T15:07:24.664Z,102111.80
2023-02-11T15:09:54.359Z,102113.15
2023-02-11T15:12:25.775Z,102111.01
2023-02-11T15:14:55.588Z,102097.80
2023-02-11T15:17:24.893Z,102095.13
2023-02-11T15:19:54.424Z,102089.08
2023-02-11T15:22:24.227Z,102088.13
2023-02-11T15:25:00.796Z,102081.29
2023-02-11T15:27:36.131Z,102077.14
2023-02-11T15:30:09.452Z,102073.98
2023-02-11T15:32:40.972Z,102067.12
2023-02-11T15:35:13.814Z,102067.86
2023-02-11T15:37:42.841Z,102073.44
2023-02-11T15:40:15.171Z,102070.33
2023-02-11T15:42:55.011Z,102075.46
2023-02-11T15:45:28.383Z,102071.75
2023-02-11T15:48:18.362Z,102064.52
2023-02-11T15:50:50.716Z,102063.05
2023-02-11T15:53:24.206Z,102065.38
2023-02-11T15:55:53.883Z,102063.83
2023-02-11T15:58:22.689Z,102063.66
2023-02-11T16:00:54.463Z,102058.65
2023-02-11T16:03:24.376Z,102056.84
2023-02-11T16:05:55.913Z,102059.14
2023-02-11T16:08:25.805Z,102056.87
2023-02-11T16:10:57.969Z,102064.83
2023-02-11T16:13:29.118Z,102066.58
2023-02-11T16:22:28.096Z,102073.48
2023-02-11T16:25:00.794Z,102072.80
2023-02-11T16:27:45.804Z,102072.98
2023-02-11T16:33:14.800Z,102070.43
2023-02-11T16:35:56.700Z,102069.88
2023-02-11T16:38:29.167Z,102074.55
2023-02-11T16:41:14.745Z,102075.73
2023-02-11T16:43:50.861Z,102077.79
2023-02-11T16:46:25.312Z,102082.02
2023-02-11T16:49:03.219Z,102079.99
2023-02-11T16:51:48.687Z,102080.96
2023-02-11T16:57:24.176Z,102082.08
2023-02-11T16:59:55.823Z,102081.77
2023-02-11T17:02:28.081Z,102087.44
2023-02-11T17:04:59.587Z,102083.03
2023-02-11T17:07:31.100Z,102083.69
2023-02-11T17:10:03.914Z,102080.06
2023-02-11T17:12:43.091Z,102078.27
2023-02-11T17:15:13.911Z,102066.98
2023-02-11T17:17:46.136Z,102064.96
2023-02-11T17:20:23.613Z,102060.30
2023-02-11T17:22:59.916Z,102055.29
2023-02-11T17:25:40.029Z,102052.40
2023-02-11T17:28:43.249Z,102053.21
2023-02-11T17:31:19.882Z,102049.64
2023-02-11T17:33:53.764Z,102044.51
2023-02-11T17:36:29.369Z,102037.11
2023-02-11T17:39:01.186Z,102033.23
2023-02-11T17:41:32.314Z,102036.13
2023-02-11T17:44:10.203Z,102031.71
2023-02-11T17:46:44.295Z,102031.38
2023-02-11T17:49:17.108Z,102023.23
2023-02-11T17:51:48.331Z,102020.20
2023-02-11T17:54:20.530Z,102019.34
2023-02-11T17:56:58.416Z,102019.16
2023-02-11T17:59:35.650Z,102021.20
2023-02-11T18:02:07.029Z,102023.85
2023-02-11T18:04:48.045Z,102026.42
2023-02-11T18:07:56.011Z,102025.29
2023-02-11T18:10:55.312Z,102015.02
2023-02-11T18:13:59.016Z,102003.23
2023-02-11T18:16:45.809Z,102006.19
2023-02-11T18:19:25.914Z,102003.55
2023-02-11T18:22:16.525Z,102002.09
2023-02-11T18:24:53.996Z,102001.33
2023-02-11T18:27:36.666Z,101998.23
2023-02-11T18:30:24.124Z,101995.80
2023-02-11T18:33:02.617Z,101994.85
2023-02-11T18:35:38.481Z,101994.37
2023-02-11T18:41:10.029Z,101980.09
2023-02-11T18:44:03.468Z,101973.95
2023-02-11T18:54:53.174Z,101954.30
2023-02-11T18:56:16.720Z,101965.27
2023-02-11T19:00:40.681Z,101947.33
2023-02-11T19:03:18.031Z,101936.87
2023-02-11T19:09:31.662Z,101928.19
2023-02-11T19:15:29.004Z,101918.56
2023-02-11T19:21:43.389Z,101914.30
2023-02-11T19:41:05.311Z,101878.14
2023-02-11T20:27:29.208Z,101822.52
2023-02-11T20:29:59.891Z,101822.23
2023-02-11T20:32:32.823Z,101820.02
2023-02-11T20:35:04.065Z,101824.14
2023-02-11T20:37:36.122Z,101833.50
2023-02-11T20:40:07.806Z,101843.30
2023-02-11T20:42:42.164Z,101842.64
2023-02-11T20:45:27.038Z,101836.58
2023-02-11T20:48:13.128Z,101827.84
2023-02-11T20:50:57.773Z,101822.19
2023-02-11T20:53:28.767Z,101818.58
2023-02-11T20:55:59.596Z,101816.73
2023-02-11T20:58:30.725Z,101819.43
2023-02-11T21:01:08.992Z,101818.58
2023-02-11T21:03:39.833Z,101810.33
2023-02-11T21:06:12.060Z,101794.89
2023-02-11T21:08:46.159Z,101788.41
2023-02-11T21:11:19.713Z,101789.23
2023-02-11T21:13:51.252Z,101800.14
2023-02-11T21:16:22.323Z,101799.28
2023-02-11T21:18:53.459Z,101798.91
2023-02-11T21:21:24.395Z,101799.64
2023-02-11T21:23:56.305Z,101797.45
2023-02-11T21:26:27.435Z,101801.65
2023-02-11T21:28:58.546Z,101803.07
2023-02-11T21:31:30.783Z,101807.14
2023-02-11T21:34:01.434Z,101807.21
2023-02-11T21:36:32.634Z,101801.77
2023-02-11T21:39:04.436Z,101800.00
2023-02-11T21:41:35.179Z,101809.34
2023-02-11T21:44:05.902Z,101815.09
2023-02-11T21:46:37.721Z,101813.77
2023-02-11T21:49:09.043Z,101812.48
2023-02-11T21:51:40.453Z,101814.75
2023-02-11T21:54:11.609Z,101812.44
2023-02-11T21:56:42.381Z,101810.09
2023-02-11T21:59:13.731Z,101812.20
2023-02-11T22:01:51.781Z,101810.06
2023-02-11T22:04:26.168Z,101811.56
2023-02-11T22:06:57.775Z,101806.45
2023-02-11T22:09:28.704Z,101803.23
2023-02-11T22:12:01.289Z,101802.73
2023-02-11T22:14:46.438Z,101800.71
2023-02-11T22:17:17.637Z,101799.15
2023-02-11T22:19:48.976Z,101801.25
2023-02-11T22:22:25.524Z,101799.30
2023-02-11T22:27:56.534Z,101786.27
2023-02-11T22:30:27.599Z,101773.04
2023-02-11T22:33:00.475Z,101774.48
2023-02-11T22:35:31.628Z,101774.75
2023-02-11T22:38:04.724Z,101776.20
2023-02-11T22:40:37.086Z,101774.88
2023-02-11T22:43:08.052Z,101776.79
2023-02-11T22:45:39.117Z,101778.36
2023-02-11T22:48:09.997Z,101772.30
2023-02-11T22:50:40.664Z,101768.09
2023-02-11T22:53:11.520Z,101765.93
2023-02-11T22:55:42.309Z,101763.48
2023-02-11T22:58:13.072Z,101763.23
2023-02-11T23:00:44.036Z,101760.71
2023-02-11T23:03:15.740Z,101767.09
2023-02-11T23:05:46.616Z,101771.62
2023-02-11T23:08:17.479Z,101767.42
2023-02-11T23:10:49.480Z,101757.48
2023-02-11T23:13:20.299Z,101752.47
2023-02-11T23:15:51.068Z,101753.41
2023-02-11T23:18:21.938Z,101756.20
2023-02-11T23:20:52.795Z,101763.23
2023-02-11T23:23:23.557Z,101759.35
2023-02-11T23:25:54.785Z,101756.98
2023-02-11T23:28:25.965Z,101748.36
2023-02-11T23:30:56.847Z,101740.60
2023-02-11T23:33:27.784Z,101737.62
2023-02-11T23:35:58.611Z,101738.34
2023-02-11T23:38:29.323Z,101733.20
2023-02-11T23:41:00.064Z,101732.52
2023-02-11T23:43:30.928Z,101726.02
2023-02-11T23:46:01.743Z,101718.42
2023-02-11T23:48:32.750Z,101726.55
2023-02-11T23:51:03.852Z,101734.23
2023-02-11T23:53:34.543Z,101734.90
2023-02-11T23:56:08.901Z,101739.98
2023-02-11T23:58:39.674Z,101744.64
